createdAt,value
2018-02-08T00:00:14.691Z,102069.73
2018-02-08T00:02:40.901Z,102064.07
2018-02-08T00:05:07.756Z,102060.59
2018-02-08T00:07:33.975Z,102070.63
2018-02-08T00:10:00.250Z,102075.00
2018-02-08T00:12:26.442Z,102075.42
2018-02-08T00:14:52.659Z,102070.18
2018-02-08T00:17:18.921Z,102064.94
2018-02-08T00:19:45.464Z,102064.09
2018-02-08T00:22:23.981Z,102068.44
2018-02-08T00:24:50.183Z,102064.06
2018-02-08T00:27:16.405Z,102060.13
2018-02-08T00:29:42.685Z,102064.94
2018-02-08T00:32:08.886Z,102061.88
2018-02-08T00:34:35.095Z,102068.02
2018-02-08T00:37:01.360Z,102069.30
2018-02-08T00:39:27.558Z,102065.83
2018-02-08T00:41:53.764Z,102060.14
2018-02-08T00:44:20.004Z,102061.00
2018-02-08T00:46:46.198Z,102059.25
2018-02-08T00:49:12.463Z,102054.47
2018-02-08T00:51:38.741Z,102058.39
2018-02-08T00:54:04.949Z,102058.83
2018-02-08T00:56:31.171Z,102053.59
2018-02-08T00:58:57.438Z,102058.38
2018-02-08T01:01:23.676Z,102056.22
2018-02-08T01:03:49.882Z,102057.95
2018-02-08T01:06:16.140Z,102063.21
2018-02-08T01:08:42.680Z,102067.58
2018-02-08T01:11:09.216Z,102065.82
2018-02-08T01:13:35.444Z,102070.18
2018-02-08T01:16:01.667Z,102064.52
2018-02-08T01:18:28.203Z,102061.88
2018-02-08T01:20:54.402Z,102065.39
2018-02-08T01:23:20.569Z,102068.42
2018-02-08T01:25:46.779Z,102067.98
2018-02-08T01:28:12.935Z,102074.98
2018-02-08T01:30:39.107Z,102078.05
2018-02-08T01:33:05.314Z,102080.63
2018-02-08T01:35:31.495Z,102082.38
2018-02-08T01:37:58.330Z,102084.14
2018-02-08T01:40:24.486Z,102081.10
2018-02-08T01:42:50.996Z,102082.82
2018-02-08T01:45:17.217Z,102078.46
2018-02-08T01:47:43.387Z,102073.22
2018-02-08T01:50:09.540Z,102068.00
2018-02-08T01:52:35.746Z,102074.98
2018-02-08T01:55:01.919Z,102071.45
2018-02-08T01:57:28.104Z,102072.34
2018-02-08T01:59:54.585Z,102072.80
2018-02-08T02:02:20.750Z,102064.50
2018-02-08T02:04:47.153Z,102070.15
2018-02-08T02:07:13.366Z,102067.55
2018-02-08T02:09:39.546Z,102067.11
2018-02-08T02:12:05.700Z,102060.56
2018-02-08T02:14:31.929Z,102070.61
2018-02-08T02:16:58.394Z,102060.98
2018-02-08T02:19:24.557Z,102059.70
2018-02-08T02:21:51.510Z,102067.98
2018-02-08T02:24:17.998Z,102067.98
2018-02-08T02:26:44.170Z,102060.55
2018-02-08T02:29:10.804Z,102056.63
2018-02-08T02:31:36.986Z,102056.64
2018-02-08T02:34:03.427Z,102060.98
2018-02-08T02:36:29.997Z,102061.86
2018-02-08T02:38:56.161Z,102057.06
2018-02-08T02:41:22.631Z,102058.37
2018-02-08T02:43:49.308Z,102061.88
2018-02-08T02:46:15.478Z,102056.63
2018-02-08T02:48:41.642Z,102056.63
2018-02-08T02:51:07.838Z,102055.76
2018-02-08T02:53:34.271Z,102055.32
2018-02-08T02:56:00.523Z,102054.45
2018-02-08T02:58:26.712Z,102054.90
2018-02-08T03:00:53.134Z,102045.30
2018-02-08T03:03:19.336Z,102054.45
2018-02-08T03:05:45.501Z,102050.97
2018-02-08T03:08:11.667Z,102053.56
2018-02-08T03:10:38.217Z,102052.28
2018-02-08T03:13:04.374Z,102055.34
2018-02-08T03:15:30.532Z,102059.70
2018-02-08T03:17:56.761Z,102061.02
2018-02-08T03:20:22.932Z,102069.30
2018-02-08T03:22:49.103Z,102073.23
2018-02-08T03:25:15.325Z,102070.19
2018-02-08T03:27:41.477Z,102073.23
2018-02-08T03:30:07.678Z,102074.54
2018-02-08T03:32:33.903Z,102074.09
2018-02-08T03:35:00.075Z,102071.48
2018-02-08T03:37:26.254Z,102069.73
2018-02-08T03:39:52.815Z,102066.24
2018-02-08T03:42:19.260Z,102067.14
2018-02-08T03:44:45.419Z,102071.92
2018-02-08T03:47:11.944Z,102066.69
2018-02-08T03:49:38.350Z,102073.21
2018-02-08T03:52:04.882Z,102068.42
2018-02-08T03:54:31.423Z,102071.48
2018-02-08T03:56:57.700Z,102067.13
2018-02-08T03:59:24.176Z,102071.47
2018-02-08T04:01:50.405Z,102076.27
2018-02-08T04:04:16.937Z,102070.16
2018-02-08T04:06:43.091Z,102068.39
2018-02-08T04:09:09.277Z,102072.30
2018-02-08T04:11:35.453Z,102072.72
2018-02-08T04:14:01.675Z,102067.04
2018-02-08T04:16:27.831Z,102072.28
2018-02-08T04:18:53.985Z,102071.41
2018-02-08T04:21:20.559Z,102079.68
2018-02-08T04:23:46.719Z,102077.94
2018-02-08T04:26:12.871Z,102075.34
2018-02-08T04:28:39.075Z,102074.89
2018-02-08T04:31:05.247Z,102066.63
2018-02-08T04:33:31.405Z,102069.23
2018-02-08T04:35:57.633Z,102065.34
2018-02-08T04:38:35.892Z,102064.05
2018-02-08T04:41:14.336Z,102064.93
2018-02-08T04:43:52.946Z,102064.91
2018-02-08T04:46:31.443Z,102063.17
2018-02-08T04:48:57.601Z,102068.43
2018-02-08T04:51:23.755Z,102068.87
2018-02-08T04:53:49.960Z,102064.06
2018-02-08T04:56:16.369Z,102066.23
2018-02-08T04:58:42.555Z,102059.25
2018-02-08T05:01:09.033Z,102061.44
2018-02-08T05:03:35.463Z,102058.34
2018-02-08T05:06:01.627Z,102053.96
2018-02-08T05:08:27.815Z,102056.14
2018-02-08T05:10:53.999Z,102057.03
2018-02-08T05:13:20.222Z,102062.27
2018-02-08T05:15:46.389Z,102066.19
2018-02-08T05:18:12.561Z,102060.49
2018-02-08T05:20:38.772Z,102061.82
2018-02-08T05:23:04.947Z,102062.69
2018-02-08T05:25:31.113Z,102065.28
2018-02-08T05:27:57.341Z,102071.39
2018-02-08T05:30:23.514Z,102073.56
2018-02-08T05:32:49.962Z,102075.34
2018-02-08T05:35:16.280Z,102071.42
2018-02-08T05:37:42.440Z,102078.82
2018-02-08T05:40:08.612Z,102077.53
2018-02-08T05:42:35.280Z,102081.49
2018-02-08T05:45:01.425Z,102079.32
2018-02-08T05:47:27.602Z,102074.10
2018-02-08T05:49:55.171Z,102079.74
2018-02-08T05:52:21.356Z,102078.88
2018-02-08T05:54:47.750Z,102084.05
2018-02-08T05:57:14.282Z,102090.57
2018-02-08T05:59:40.470Z,102091.89
2018-02-08T06:02:06.623Z,102094.95
2018-02-08T06:04:32.834Z,102094.49
2018-02-08T06:06:59.007Z,102104.52
2018-02-08T06:09:25.471Z,102100.58
2018-02-08T06:11:52.001Z,102107.13
2018-02-08T06:14:18.167Z,102108.39
2018-02-08T06:16:44.387Z,102104.91
2018-02-08T06:19:10.556Z,102111.89
2018-02-08T06:21:36.715Z,102106.67
2018-02-08T06:24:03.286Z,102105.80
2018-02-08T06:26:29.448Z,102104.48
2018-02-08T06:28:55.625Z,102111.02
2018-02-08T06:31:22.185Z,102103.59
2018-02-08T06:33:48.354Z,102104.47
2018-02-08T06:36:14.502Z,102104.02
2018-02-08T06:38:40.719Z,102103.16
2018-02-08T06:41:06.878Z,102105.38
2018-02-08T06:43:33.380Z,102101.48
2018-02-08T06:45:59.614Z,102097.58
2018-02-08T06:48:25.766Z,102102.38
2018-02-08T06:50:52.169Z,102100.67
2018-02-08T06:53:18.369Z,102091.97
2018-02-08T06:55:44.547Z,102099.84
2018-02-08T06:58:11.109Z,102098.52
2018-02-08T07:00:37.295Z,102095.06
2018-02-08T07:03:03.493Z,102095.47
2018-02-08T07:05:29.703Z,102105.09
2018-02-08T07:07:56.102Z,102107.70
2018-02-08T07:10:22.270Z,102112.08
2018-02-08T07:12:48.491Z,102111.63
2018-02-08T07:15:14.643Z,102119.49
2018-02-08T07:17:40.839Z,102119.50
2018-02-08T07:20:10.905Z,102123.00
2018-02-08T07:22:37.086Z,102131.28
2018-02-08T07:25:03.252Z,102121.22
2018-02-08T07:27:29.492Z,102131.27
2018-02-08T07:29:56.016Z,102136.42
2018-02-08T07:32:22.188Z,102137.26
2018-02-08T07:34:48.801Z,102139.90
2018-02-08T07:37:15.315Z,102138.57
2018-02-08T07:39:41.467Z,102135.52
2018-02-08T07:42:07.685Z,102141.63
2018-02-08T07:44:33.963Z,102145.11
2018-02-08T07:47:00.143Z,102146.42
2018-02-08T07:49:26.334Z,102145.13
2018-02-08T07:51:52.502Z,102146.01
2018-02-08T07:54:18.724Z,102151.68
2018-02-08T07:56:45.239Z,102157.79
2018-02-08T07:59:11.422Z,102156.98
2018-02-08T08:01:37.644Z,102160.03
2018-02-08T08:04:04.131Z,102165.73
2018-02-08T08:06:30.298Z,102164.42
2018-02-08T08:08:56.606Z,102162.21
2018-02-08T08:11:22.760Z,102166.57
2018-02-08T08:13:49.247Z,102166.59
2018-02-08T08:16:15.932Z,102166.15
2018-02-08T08:18:42.114Z,102160.91
2018-02-08T08:21:08.309Z,102154.80
2018-02-08T08:23:34.511Z,102148.68
2018-02-08T08:26:01.001Z,102151.73
2018-02-08T08:28:27.183Z,102147.39
2018-02-08T08:30:53.823Z,102145.59
2018-02-08T08:33:19.994Z,102149.11
2018-02-08T08:35:46.179Z,102145.63
2018-02-08T08:38:13.106Z,102147.41
2018-02-08T08:40:39.599Z,102149.14
2018-02-08T08:43:05.765Z,102143.48
2018-02-08T08:45:32.260Z,102145.23
2018-02-08T08:47:58.421Z,102150.48
2018-02-08T08:50:24.581Z,102157.91
2018-02-08T08:52:51.139Z,102160.09
2018-02-08T08:55:17.372Z,102165.34
2018-02-08T08:57:43.539Z,102164.48
2018-02-08T09:00:10.035Z,102168.42
2018-02-08T09:02:36.218Z,102168.84
2018-02-08T09:05:02.747Z,102174.95
2018-02-08T09:07:28.909Z,102172.77
2018-02-08T09:09:55.070Z,102176.70
2018-02-08T09:12:21.655Z,102172.34
2018-02-08T09:14:47.817Z,102176.70
2018-02-08T09:17:14.013Z,102175.84
2018-02-08T09:19:40.598Z,102185.87
2018-02-08T09:22:06.754Z,102175.40
2018-02-08T09:24:33.242Z,102177.15
2018-02-08T09:26:59.830Z,102182.83
2018-02-08T09:31:57.726Z,102173.67
2018-02-08T09:34:23.936Z,102177.58
2018-02-08T09:36:50.098Z,102179.34
2018-02-08T09:39:16.259Z,102182.42
2018-02-08T09:41:43.105Z,102184.16
2018-02-08T09:44:09.271Z,102180.66
2018-02-08T09:46:35.435Z,102184.59
2018-02-08T09:49:01.644Z,102181.97
2018-02-08T09:51:28.095Z,102183.72
2018-02-08T09:53:54.258Z,102181.96
2018-02-08T09:56:20.758Z,102190.72
2018-02-08T09:58:46.926Z,102185.91
2018-02-08T10:01:13.246Z,102184.16
2018-02-08T10:03:39.470Z,102191.14
2018-02-08T10:06:05.663Z,102193.77
2018-02-08T10:08:31.889Z,102198.13
2018-02-08T10:10:58.059Z,102185.03
2018-02-08T10:13:24.236Z,102187.23
2018-02-08T10:15:50.488Z,102186.78
2018-02-08T10:18:16.642Z,102190.73
2018-02-08T10:20:42.806Z,102194.22
2018-02-08T10:23:09.034Z,102191.17
2018-02-08T10:25:35.497Z,102205.56
2018-02-08T10:28:01.932Z,102201.23
2018-02-08T10:30:28.162Z,102195.52
2018-02-08T10:32:54.690Z,102201.67
2018-02-08T10:35:21.131Z,102197.30
2018-02-08T10:37:47.340Z,102195.11
2018-02-08T10:40:13.512Z,102200.36
2018-02-08T10:42:39.667Z,102206.05
2018-02-08T10:45:06.311Z,102209.09
2018-02-08T10:47:32.494Z,102198.17
2018-02-08T10:49:58.661Z,102197.30
2018-02-08T10:52:24.931Z,102197.75
2018-02-08T10:54:51.107Z,102198.63
2018-02-08T10:57:17.266Z,102198.63
2018-02-08T10:59:43.871Z,102202.98
2018-02-08T11:02:10.090Z,102197.28
2018-02-08T11:04:36.239Z,102191.17
2018-02-08T11:07:02.484Z,102190.71
2018-02-08T11:09:28.706Z,102185.45
2018-02-08T11:11:55.560Z,102185.89
2018-02-08T11:14:21.787Z,102185.00
2018-02-08T11:16:47.987Z,102180.17
2018-02-08T11:19:14.977Z,102178.44
2018-02-08T11:21:41.162Z,102174.48
2018-02-08T11:24:07.471Z,102173.61
2018-02-08T11:26:33.882Z,102176.67
2018-02-08T11:29:00.076Z,102175.38
2018-02-08T11:31:26.301Z,102177.12
2018-02-08T11:33:52.554Z,102174.94
2018-02-08T11:36:18.801Z,102176.25
2018-02-08T11:38:44.988Z,102175.38
2018-02-08T11:41:12.749Z,102175.38
2018-02-08T11:43:38.942Z,102173.17
2018-02-08T11:46:05.146Z,102170.11
2018-02-08T11:48:31.441Z,102167.02
2018-02-08T11:50:57.647Z,102163.56
2018-02-08T11:53:23.862Z,102161.80
2018-02-08T11:55:50.447Z,102165.30
2018-02-08T11:58:16.608Z,102163.98
2018-02-08T12:00:42.779Z,102167.50
2018-02-08T12:03:09.742Z,102166.19
2018-02-08T12:05:36.181Z,102164.41
2018-02-08T12:08:02.347Z,102160.92
2018-02-08T12:10:29.252Z,102156.95
2018-02-08T12:12:55.680Z,102163.95
2018-02-08T12:15:21.883Z,102157.81
2018-02-08T12:17:48.105Z,102162.20
2018-02-08T12:20:14.638Z,102162.20
2018-02-08T12:22:40.818Z,102160.44
2018-02-08T12:25:07.134Z,102158.69
2018-02-08T12:27:33.665Z,102157.81
2018-02-08T12:29:59.828Z,102142.05
2018-02-08T12:32:26.326Z,102148.16
2018-02-08T12:34:52.500Z,102146.39
2018-02-08T12:37:18.672Z,102139.42
2018-02-08T12:39:44.900Z,102139.87
2018-02-08T12:42:11.107Z,102139.03
2018-02-08T12:44:37.569Z,102129.81
2018-02-08T12:47:03.784Z,102129.77
2018-02-08T12:49:30.789Z,102119.73
2018-02-08T12:51:56.954Z,102117.52
2018-02-08T12:54:23.153Z,102115.32
2018-02-08T12:56:49.315Z,102114.44
2018-02-08T12:59:16.318Z,102103.06
2018-02-08T13:01:42.531Z,102109.62
2018-02-08T13:04:08.737Z,102100.45
2018-02-08T13:06:34.984Z,102097.80
2018-02-08T13:09:01.202Z,102089.94
2018-02-08T13:11:27.375Z,102086.42
2018-02-08T13:13:53.626Z,102082.53
2018-02-08T13:16:19.798Z,102078.55
2018-02-08T13:18:46.297Z,102076.81
2018-02-08T13:21:12.502Z,102072.45
2018-02-08T13:23:38.679Z,102068.47
2018-02-08T13:26:05.286Z,102063.67
2018-02-08T13:28:31.468Z,102060.14
2018-02-08T13:30:57.670Z,102060.97
2018-02-08T13:33:23.918Z,102062.25
2018-02-08T13:35:50.086Z,102061.82
2018-02-08T13:38:16.297Z,102060.93
2018-02-08T13:40:45.538Z,102060.48
2018-02-08T13:43:11.724Z,102059.09
2018-02-08T13:45:37.946Z,102061.72
2018-02-08T13:48:10.556Z,102056.04
2018-02-08T13:50:43.014Z,102056.41
2018-02-08T13:53:15.711Z,102056.79
2018-02-08T13:55:48.137Z,102053.25
2018-02-08T13:58:20.399Z,102051.89
2018-02-08T14:00:51.535Z,102056.23
2018-02-08T14:03:17.770Z,102049.62
2018-02-08T14:05:44.007Z,102050.04
2018-02-08T14:08:10.208Z,102047.92
2018-02-08T14:10:36.416Z,102044.88
2018-02-08T14:13:02.621Z,102046.20
2018-02-08T14:15:28.806Z,102042.28
2018-02-08T14:17:55.040Z,102045.82
2018-02-08T14:20:21.218Z,102048.50
2018-02-08T14:22:47.389Z,102043.69
2018-02-08T14:25:14.024Z,102038.47
2018-02-08T14:27:40.281Z,102034.54
2018-02-08T14:30:06.469Z,102035.39
2018-02-08T14:32:32.944Z,102034.95
2018-02-08T14:34:59.130Z,102034.08
2018-02-08T14:37:25.291Z,102030.57
2018-02-08T14:39:52.351Z,102034.52
2018-02-08T14:42:18.544Z,102035.38
2018-02-08T14:44:51.031Z,102032.30
2018-02-08T14:47:17.510Z,102033.58
2018-02-08T14:49:43.671Z,102032.23
2018-02-08T14:52:10.174Z,102030.87
2018-02-08T14:54:36.709Z,102027.28
2018-02-08T14:57:02.887Z,102036.45
2018-02-08T14:59:29.294Z,102036.76
2018-02-08T15:01:55.522Z,102030.47
2018-02-08T15:04:21.703Z,102030.63
2018-02-08T15:06:47.864Z,102025.78
2018-02-08T15:09:14.095Z,102034.65
2018-02-08T15:11:40.247Z,102038.31
2018-02-08T15:14:06.740Z,102034.07
2018-02-08T15:16:33.437Z,102042.42
2018-02-08T15:18:59.624Z,102044.23
2018-02-08T15:21:25.795Z,102043.80
2018-02-08T15:23:52.010Z,102046.41
2018-02-08T15:26:18.404Z,102046.87
2018-02-08T15:28:44.921Z,102044.27
2018-02-08T15:31:11.512Z,102047.80
2018-02-08T15:33:37.655Z,102047.82
2018-02-08T15:36:03.820Z,102046.50
2018-02-08T15:38:30.026Z,102049.17
2018-02-08T15:40:56.216Z,102045.25
2018-02-08T15:43:22.379Z,102048.34
2018-02-08T15:45:48.985Z,102043.13
2018-02-08T15:48:15.161Z,102045.36
2018-02-08T15:50:41.412Z,102041.48
2018-02-08T15:53:07.681Z,102034.52
2018-02-08T15:55:33.862Z,102031.49
2018-02-08T15:58:00.047Z,102029.36
2018-02-08T16:00:26.244Z,102027.22
2018-02-08T16:02:52.424Z,102030.37
2018-02-08T16:05:18.700Z,102028.66
2018-02-08T16:07:44.882Z,102027.83
2018-02-08T16:10:11.057Z,102027.84
2018-02-08T16:12:37.269Z,102031.82
2018-02-08T16:15:03.490Z,102024.88
2018-02-08T16:17:29.709Z,102028.42
2018-02-08T16:19:55.885Z,102034.12
2018-02-08T16:22:22.360Z,102036.32
2018-02-08T16:24:48.560Z,102037.67
2018-02-08T16:27:14.768Z,102039.41
2018-02-08T16:29:41.006Z,102039.44
2018-02-08T16:32:07.168Z,102037.68
2018-02-08T16:34:33.337Z,102038.58
2018-02-08T16:36:59.559Z,102032.05
2018-02-08T16:39:26.055Z,102025.05
2018-02-08T16:41:52.220Z,102028.58
2018-02-08T16:44:18.435Z,102028.13
2018-02-08T16:46:44.600Z,102033.41
2018-02-08T16:49:10.778Z,102032.09
2018-02-08T16:51:37.334Z,102029.91
2018-02-08T16:54:03.831Z,102029.02
2018-02-08T16:56:29.989Z,102024.22
2018-02-08T16:58:56.457Z,102026.42
2018-02-08T17:01:22.627Z,102028.62
2018-02-08T17:03:48.797Z,102026.87
2018-02-08T17:06:15.017Z,102024.27
2018-02-08T17:08:41.516Z,102023.84
2018-02-08T17:11:07.688Z,102027.33
2018-02-08T17:13:33.918Z,102027.77
2018-02-08T17:16:00.396Z,102030.36
2018-02-08T17:18:26.829Z,102033.88
2018-02-08T17:20:53.072Z,102036.91
2018-02-08T17:23:19.233Z,102032.55
2018-02-08T17:25:45.414Z,102033.87
2018-02-08T17:28:11.573Z,102036.06
2018-02-08T17:30:37.833Z,102039.13
2018-02-08T17:33:04.003Z,102029.97
2018-02-08T17:35:30.173Z,102039.11
2018-02-08T17:37:56.402Z,102039.59
2018-02-08T17:40:22.556Z,102035.22
2018-02-08T17:42:48.726Z,102031.69
2018-02-08T17:45:15.394Z,102029.95
2018-02-08T17:47:41.559Z,102029.98
2018-02-08T17:50:08.003Z,102033.47
2018-02-08T17:52:34.946Z,102028.69
2018-02-08T17:55:01.122Z,102028.23
2018-02-08T17:57:27.281Z,102025.17
2018-02-08T17:59:53.834Z,102028.22
2018-02-08T18:02:20.263Z,102031.70
2018-02-08T18:04:46.700Z,102026.91
2018-02-08T18:07:12.919Z,102031.71
2018-02-08T18:09:39.362Z,102028.22
2018-02-08T18:12:05.516Z,102029.97
2018-02-08T18:14:31.758Z,102031.28
2018-02-08T18:16:57.980Z,102024.30
2018-02-08T18:19:24.481Z,102033.47
2018-02-08T18:21:50.678Z,102040.42
2018-02-08T18:24:17.024Z,102040.42
2018-02-08T18:26:43.586Z,102042.63
2018-02-08T18:29:10.103Z,102044.80
2018-02-08T18:31:36.296Z,102046.09
2018-02-08T18:34:03.590Z,102048.30
2018-02-08T18:36:29.842Z,102050.48
2018-02-08T18:38:56.130Z,102048.27
2018-02-08T18:41:22.357Z,102050.47
2018-02-08T18:43:48.528Z,102043.45
2018-02-08T18:46:14.671Z,102039.55
2018-02-08T18:48:41.307Z,102044.78
2018-02-08T18:51:07.459Z,102041.75
2018-02-08T18:53:33.627Z,102041.72
2018-02-08T18:55:59.874Z,102038.22
2018-02-08T18:58:26.035Z,102037.37
2018-02-08T19:00:52.206Z,102032.59
2018-02-08T19:03:19.046Z,102031.27
2018-02-08T19:05:45.196Z,102035.21
2018-02-08T19:08:11.533Z,102036.52
2018-02-08T19:10:37.723Z,102037.80
2018-02-08T19:13:03.894Z,102036.09
2018-02-08T19:15:30.820Z,102032.14
2018-02-08T19:17:56.966Z,102023.42
2018-02-08T19:20:23.135Z,102025.15
2018-02-08T19:22:49.334Z,102016.89
2018-02-08T19:25:15.492Z,102014.68
2018-02-08T19:27:42.762Z,102014.27
2018-02-08T19:30:08.996Z,102015.58
2018-02-08T19:32:35.228Z,102007.25
2018-02-08T19:35:01.428Z,102012.92
2018-02-08T19:37:27.595Z,102009.41
2018-02-08T19:39:53.773Z,102004.59
2018-02-08T19:42:19.979Z,102005.89
2018-02-08T19:44:46.139Z,102009.41
2018-02-08T19:47:12.362Z,102004.60
2018-02-08T19:49:38.511Z,101999.37
2018-02-08T19:52:04.689Z,102005.93
2018-02-08T19:54:31.163Z,102010.75
2018-02-08T19:56:57.734Z,102006.80
2018-02-08T19:59:24.310Z,102002.00
2018-02-08T20:01:50.482Z,102008.11
2018-02-08T20:04:16.664Z,101996.31
2018-02-08T20:06:42.868Z,102005.03
2018-02-08T20:09:09.034Z,101999.77
2018-02-08T20:11:35.195Z,102000.20
2018-02-08T20:14:02.528Z,101998.05
2018-02-08T20:16:28.709Z,101998.06
2018-02-08T20:18:54.851Z,101998.09
2018-02-08T20:21:21.171Z,101992.87
2018-02-08T20:23:47.361Z,102001.61
2018-02-08T20:26:13.537Z,101998.50
2018-02-08T20:28:40.156Z,101995.89
2018-02-08T20:31:09.286Z,101998.05
2018-02-08T20:33:35.506Z,101997.66
2018-02-08T20:36:02.069Z,101986.28
2018-02-08T20:38:28.237Z,101991.95
2018-02-08T20:40:54.419Z,101988.89
2018-02-08T20:43:26.718Z,101981.05
2018-02-08T20:45:52.918Z,101983.66
2018-02-08T20:48:19.173Z,101982.77
2018-02-08T20:50:45.325Z,101981.89
2018-02-08T20:53:11.482Z,101983.22
2018-02-08T20:55:37.937Z,101977.98
2018-02-08T20:58:04.099Z,101981.91
2018-02-08T21:00:30.265Z,101984.11
2018-02-08T21:02:56.813Z,101985.38
2018-02-08T21:05:22.967Z,101988.02
2018-02-08T21:07:49.482Z,101983.23
2018-02-08T21:10:15.709Z,101981.92
2018-02-08T21:12:41.882Z,101976.23
2018-02-08T21:15:08.092Z,101985.43
2018-02-08T21:17:35.107Z,101982.82
2018-02-08T21:20:01.327Z,101985.44
2018-02-08T21:22:28.182Z,101974.56
2018-02-08T21:24:54.357Z,101972.78
2018-02-08T21:27:20.519Z,101970.16
2018-02-08T21:29:47.376Z,101969.72
2018-02-08T21:32:13.600Z,101967.09
2018-02-08T21:34:39.806Z,101961.87
2018-02-08T21:37:06.019Z,101968.86
2018-02-08T21:39:32.205Z,101962.30
2018-02-08T21:41:58.727Z,101954.86
2018-02-08T21:44:24.958Z,101949.18
2018-02-08T21:46:51.184Z,101945.25
2018-02-08T21:49:17.354Z,101942.17
2018-02-08T21:51:44.283Z,101946.55
2018-02-08T21:54:10.425Z,101942.63
2018-02-08T21:56:36.597Z,101941.30
2018-02-08T21:59:02.844Z,101936.50
2018-02-08T22:01:29.263Z,101936.97
2018-02-08T22:03:55.431Z,101938.70
2018-02-08T22:06:21.697Z,101927.80
2018-02-08T22:08:47.857Z,101928.23
2018-02-08T22:11:14.021Z,101925.61
2018-02-08T22:13:40.294Z,101927.36
2018-02-08T22:16:06.737Z,101925.61
2018-02-08T22:18:32.911Z,101926.46
2018-02-08T22:20:59.114Z,101922.53
2018-02-08T22:23:25.279Z,101924.28
2018-02-08T22:25:51.865Z,101925.59
2018-02-08T22:28:18.038Z,101926.46
2018-02-08T22:30:44.212Z,101929.52
2018-02-08T22:33:10.430Z,101932.61
2018-02-08T22:35:36.671Z,101931.28
2018-02-08T22:38:02.856Z,101929.53
2018-02-08T22:40:29.063Z,101930.85
2018-02-08T22:42:55.239Z,101931.27
2018-02-08T22:45:21.775Z,101922.11
2018-02-08T22:47:47.949Z,101926.04
2018-02-08T22:50:14.115Z,101923.41
2018-02-08T22:52:40.715Z,101924.73
2018-02-08T22:55:06.889Z,101919.06
2018-02-08T22:57:33.055Z,101919.91
2018-02-08T22:59:59.268Z,101923.84
2018-02-08T23:02:25.465Z,101922.95
2018-02-08T23:04:51.711Z,101920.36
2018-02-08T23:07:17.934Z,101921.65
2018-02-08T23:09:44.093Z,101917.27
2018-02-08T23:12:10.266Z,101912.05
2018-02-08T23:14:36.478Z,101918.16
2018-02-08T23:17:02.668Z,101908.56
2018-02-08T23:19:28.837Z,101908.55
2018-02-08T23:21:55.064Z,101904.59
2018-02-08T23:24:21.227Z,101903.73
2018-02-08T23:26:47.658Z,101908.55
2018-02-08T23:29:14.247Z,101904.17
2018-02-08T23:31:40.419Z,101897.66
2018-02-08T23:34:06.579Z,101898.08
2018-02-08T23:36:32.897Z,101899.81
2018-02-08T23:38:59.082Z,101893.72
2018-02-08T23:41:25.248Z,101895.88
2018-02-08T23:43:51.492Z,101891.09
2018-02-08T23:46:17.677Z,101892.42
2018-02-08T23:48:43.845Z,101884.98
2018-02-08T23:51:10.051Z,101886.73
2018-02-08T23:53:36.208Z,101880.64
2018-02-08T23:56:02.413Z,101880.64
2018-02-08T23:58:28.574Z,101873.66
